sensor_id;sensor_type;location;lat;lon;timestamp;temperature;humidity
53962;DHT22;39868;53.398;6.564;2022-09-13T00:01:56;20.90;70.20
53962;DHT22;39868;53.398;6.564;2022-09-13T00:04:24;20.90;70.20
53962;DHT22;39868;53.398;6.564;2022-09-13T00:06:51;20.90;70.40
53962;DHT22;39868;53.398;6.564;2022-09-13T00:09:19;20.80;70.30
53962;DHT22;39868;53.398;6.564;2022-09-13T00:11:46;20.90;70.40
53962;DHT22;39868;53.398;6.564;2022-09-13T00:14:13;20.80;70.50
53962;DHT22;39868;53.398;6.564;2022-09-13T00:16:41;20.90;70.60
53962;DHT22;39868;53.398;6.564;2022-09-13T00:19:08;20.80;70.70
53962;DHT22;39868;53.398;6.564;2022-09-13T00:21:35;20.80;70.70
53962;DHT22;39868;53.398;6.564;2022-09-13T00:24:03;20.80;70.70
53962;DHT22;39868;53.398;6.564;2022-09-13T00:26:30;20.80;70.80
53962;DHT22;39868;53.398;6.564;2022-09-13T00:28:57;20.80;70.90
53962;DHT22;39868;53.398;6.564;2022-09-13T00:31:26;20.80;71.00
53962;DHT22;39868;53.398;6.564;2022-09-13T00:33:54;20.80;71.00
53962;DHT22;39868;53.398;6.564;2022-09-13T00:36:22;20.80;71.00
53962;DHT22;39868;53.398;6.564;2022-09-13T00:38:49;20.80;71.00
53962;DHT22;39868;53.398;6.564;2022-09-13T00:41:18;20.70;71.20
53962;DHT22;39868;53.398;6.564;2022-09-13T00:43:53;20.70;71.20
53962;DHT22;39868;53.398;6.564;2022-09-13T00:46:26;20.70;71.30
53962;DHT22;39868;53.398;6.564;2022-09-13T00:49:00;20.70;71.30
53962;DHT22;39868;53.398;6.564;2022-09-13T00:51:28;20.70;71.40
53962;DHT22;39868;53.398;6.564;2022-09-13T00:53:56;20.70;71.50
53962;DHT22;39868;53.398;6.564;2022-09-13T00:56:59;20.70;71.60
53962;DHT22;39868;53.398;6.564;2022-09-13T00:59:21;20.70;72.00
53962;DHT22;39868;53.398;6.564;2022-09-13T01:01:55;20.70;72.00
53962;DHT22;39868;53.398;6.564;2022-09-13T01:04:24;20.70;72.40
53962;DHT22;39868;53.398;6.564;2022-09-13T01:06:52;20.70;72.60
53962;DHT22;39868;53.398;6.564;2022-09-13T01:09:20;20.70;72.30
53962;DHT22;39868;53.398;6.564;2022-09-13T01:11:49;20.60;72.40
53962;DHT22;39868;53.398;6.564;2022-09-13T01:14:21;20.70;73.20
53962;DHT22;39868;53.398;6.564;2022-09-13T01:16:50;20.70;72.50
53962;DHT22;39868;53.398;6.564;2022-09-13T01:19:18;20.60;72.50
53962;DHT22;39868;53.398;6.564;2022-09-13T01:21:59;20.60;72.40
53962;DHT22;39868;53.398;6.564;2022-09-13T01:40:08;20.60;72.50
53962;DHT22;39868;53.398;6.564;2022-09-13T01:48:26;20.60;72.80
53962;DHT22;39868;53.398;6.564;2022-09-13T01:50:36;20.60;73.00
53962;DHT22;39868;53.398;6.564;2022-09-13T01:55:58;20.60;72.90
53962;DHT22;39868;53.398;6.564;2022-09-13T01:58:38;20.60;73.00
53962;DHT22;39868;53.398;6.564;2022-09-13T02:03:54;20.60;73.40
53962;DHT22;39868;53.398;6.564;2022-09-13T02:06:29;20.60;73.30
53962;DHT22;39868;53.398;6.564;2022-09-13T02:08:59;20.60;73.30
53962;DHT22;39868;53.398;6.564;2022-09-13T02:11:27;20.60;73.40
53962;DHT22;39868;53.398;6.564;2022-09-13T02:14:05;20.50;73.40
53962;DHT22;39868;53.398;6.564;2022-09-13T02:16:35;20.50;73.60
53962;DHT22;39868;53.398;6.564;2022-09-13T02:19:07;20.50;74.00
53962;DHT22;39868;53.398;6.564;2022-09-13T02:21:37;20.50;74.00
53962;DHT22;39868;53.398;6.564;2022-09-13T02:24:06;20.50;74.60
53962;DHT22;39868;53.398;6.564;2022-09-13T02:26:34;20.50;74.60
53962;DHT22;39868;53.398;6.564;2022-09-13T02:29:06;20.50;74.30
53962;DHT22;39868;53.398;6.564;2022-09-13T02:31:35;20.50;74.30
53962;DHT22;39868;53.398;6.564;2022-09-13T02:34:11;20.40;74.40
53962;DHT22;39868;53.398;6.564;2022-09-13T02:36:41;20.40;74.50
53962;DHT22;39868;53.398;6.564;2022-09-13T02:39:14;20.40;74.50
53962;DHT22;39868;53.398;6.564;2022-09-13T02:41:43;20.40;74.40
53962;DHT22;39868;53.398;6.564;2022-09-13T02:44:24;20.40;74.50
53962;DHT22;39868;53.398;6.564;2022-09-13T02:50:01;20.30;74.50
53962;DHT22;39868;53.398;6.564;2022-09-13T02:57:37;20.30;74.70
53962;DHT22;39868;53.398;6.564;2022-09-13T03:00:06;20.40;74.80
53962;DHT22;39868;53.398;6.564;2022-09-13T03:02:34;20.40;74.80
53962;DHT22;39868;53.398;6.564;2022-09-13T03:05:02;20.40;74.80
53962;DHT22;39868;53.398;6.564;2022-09-13T03:07:30;20.40;74.80
53962;DHT22;39868;53.398;6.564;2022-09-13T03:10:02;20.40;74.90
53962;DHT22;39868;53.398;6.564;2022-09-13T03:17:56;20.40;75.00
53962;DHT22;39868;53.398;6.564;2022-09-13T03:20:45;20.40;75.00
53962;DHT22;39868;53.398;6.564;2022-09-13T03:31:11;20.40;75.00
53962;DHT22;39868;53.398;6.564;2022-09-13T03:33:46;20.40;75.00
53962;DHT22;39868;53.398;6.564;2022-09-13T03:36:20;20.50;75.10
53962;DHT22;39868;53.398;6.564;2022-09-13T03:38:55;20.50;75.10
53962;DHT22;39868;53.398;6.564;2022-09-13T03:41:31;20.50;75.10
53962;DHT22;39868;53.398;6.564;2022-09-13T03:44:01;20.50;75.10
53962;DHT22;39868;53.398;6.564;2022-09-13T03:46:34;20.50;75.10
53962;DHT22;39868;53.398;6.564;2022-09-13T03:49:03;20.40;75.10
53962;DHT22;39868;53.398;6.564;2022-09-13T03:51:32;20.50;75.10
53962;DHT22;39868;53.398;6.564;2022-09-13T03:54:04;20.50;75.10
53962;DHT22;39868;53.398;6.564;2022-09-13T03:56:32;20.50;75.10
53962;DHT22;39868;53.398;6.564;2022-09-13T03:59:00;20.50;75.20
53962;DHT22;39868;53.398;6.564;2022-09-13T04:01:27;20.50;75.20
53962;DHT22;39868;53.398;6.564;2022-09-13T04:03:55;20.50;75.20
53962;DHT22;39868;53.398;6.564;2022-09-13T04:06:23;20.50;75.20
53962;DHT22;39868;53.398;6.564;2022-09-13T04:08:50;20.50;75.30
53962;DHT22;39868;53.398;6.564;2022-09-13T04:11:17;20.50;75.20
53962;DHT22;39868;53.398;6.564;2022-09-13T04:13:47;20.50;75.20
53962;DHT22;39868;53.398;6.564;2022-09-13T04:16:15;20.50;75.20
53962;DHT22;39868;53.398;6.564;2022-09-13T04:18:42;20.50;75.20
53962;DHT22;39868;53.398;6.564;2022-09-13T04:21:09;20.50;75.30
53962;DHT22;39868;53.398;6.564;2022-09-13T04:23:37;20.50;75.30
53962;DHT22;39868;53.398;6.564;2022-09-13T04:26:04;20.50;75.30
53962;DHT22;39868;53.398;6.564;2022-09-13T04:28:32;20.50;75.30
53962;DHT22;39868;53.398;6.564;2022-09-13T04:30:59;20.50;75.20
53962;DHT22;39868;53.398;6.564;2022-09-13T04:33:27;20.50;75.30
53962;DHT22;39868;53.398;6.564;2022-09-13T04:35:57;20.50;75.30
53962;DHT22;39868;53.398;6.564;2022-09-13T04:38:25;20.50;75.30
53962;DHT22;39868;53.398;6.564;2022-09-13T04:40:54;20.50;75.40
53962;DHT22;39868;53.398;6.564;2022-09-13T04:43:21;20.50;75.50
53962;DHT22;39868;53.398;6.564;2022-09-13T04:45:49;20.40;75.40
53962;DHT22;39868;53.398;6.564;2022-09-13T04:48:17;20.40;75.50
53962;DHT22;39868;53.398;6.564;2022-09-13T04:50:44;20.40;75.50
53962;DHT22;39868;53.398;6.564;2022-09-13T04:53:12;20.30;75.50
53962;DHT22;39868;53.398;6.564;2022-09-13T04:55:39;20.30;75.50
53962;DHT22;39868;53.398;6.564;2022-09-13T04:58:06;20.30;75.50
53962;DHT22;39868;53.398;6.564;2022-09-13T05:00:34;20.30;75.60
53962;DHT22;39868;53.398;6.564;2022-09-13T05:03:01;20.20;75.70
53962;DHT22;39868;53.398;6.564;2022-09-13T05:05:29;20.20;76.30
53962;DHT22;39868;53.398;6.564;2022-09-13T05:07:58;20.20;75.70
53962;DHT22;39868;53.398;6.564;2022-09-13T05:10:25;20.10;75.80
53962;DHT22;39868;53.398;6.564;2022-09-13T05:12:53;20.10;75.70
53962;DHT22;39868;53.398;6.564;2022-09-13T05:15:20;20.10;75.80
53962;DHT22;39868;53.398;6.564;2022-09-13T05:17:48;20.00;75.80
53962;DHT22;39868;53.398;6.564;2022-09-13T05:20:15;20.00;76.50
53962;DHT22;39868;53.398;6.564;2022-09-13T05:22:42;20.00;75.90
53962;DHT22;39868;53.398;6.564;2022-09-13T05:25:10;20.00;75.80
53962;DHT22;39868;53.398;6.564;2022-09-13T05:27:37;19.90;75.80
53962;DHT22;39868;53.398;6.564;2022-09-13T05:30:05;19.90;75.90
53962;DHT22;39868;53.398;6.564;2022-09-13T05:32:32;19.90;76.00
53962;DHT22;39868;53.398;6.564;2022-09-13T05:35:00;19.80;76.00
53962;DHT22;39868;53.398;6.564;2022-09-13T05:37:27;19.80;76.20
53962;DHT22;39868;53.398;6.564;2022-09-13T05:39:54;19.80;76.20
53962;DHT22;39868;53.398;6.564;2022-09-13T05:42:38;19.70;76.00
53962;DHT22;39868;53.398;6.564;2022-09-13T05:45:06;19.70;75.90
53962;DHT22;39868;53.398;6.564;2022-09-13T05:47:34;19.70;75.90
53962;DHT22;39868;53.398;6.564;2022-09-13T05:50:01;19.70;76.00
53962;DHT22;39868;53.398;6.564;2022-09-13T05:52:36;19.60;76.10
53962;DHT22;39868;53.398;6.564;2022-09-13T05:55:04;19.60;76.00
53962;DHT22;39868;53.398;6.564;2022-09-13T05:57:31;19.60;76.10
53962;DHT22;39868;53.398;6.564;2022-09-13T05:59:58;19.60;76.20
53962;DHT22;39868;53.398;6.564;2022-09-13T06:02:26;19.60;76.10
53962;DHT22;39868;53.398;6.564;2022-09-13T06:04:53;19.60;76.30
53962;DHT22;39868;53.398;6.564;2022-09-13T06:07:21;19.70;76.20
53962;DHT22;39868;53.398;6.564;2022-09-13T06:09:48;19.60;75.90
53962;DHT22;39868;53.398;6.564;2022-09-13T06:12:18;19.60;75.70
53962;DHT22;39868;53.398;6.564;2022-09-13T06:14:46;19.70;75.60
53962;DHT22;39868;53.398;6.564;2022-09-13T06:17:13;19.60;75.40
53962;DHT22;39868;53.398;6.564;2022-09-13T06:19:41;19.60;75.00
53962;DHT22;39868;53.398;6.564;2022-09-13T06:22:08;19.60;74.90
53962;DHT22;39868;53.398;6.564;2022-09-13T06:24:36;19.60;74.40
53962;DHT22;39868;53.398;6.564;2022-09-13T06:27:04;19.50;74.30
53962;DHT22;39868;53.398;6.564;2022-09-13T06:29:31;19.60;74.30
53962;DHT22;39868;53.398;6.564;2022-09-13T06:31:59;19.50;74.20
53962;DHT22;39868;53.398;6.564;2022-09-13T06:34:26;19.50;74.00
53962;DHT22;39868;53.398;6.564;2022-09-13T06:36:57;19.50;74.00
53962;DHT22;39868;53.398;6.564;2022-09-13T06:39:24;19.50;73.90
53962;DHT22;39868;53.398;6.564;2022-09-13T06:41:52;19.40;74.00
53962;DHT22;39868;53.398;6.564;2022-09-13T06:44:30;19.40;74.00
53962;DHT22;39868;53.398;6.564;2022-09-13T06:46:58;19.40;74.10
53962;DHT22;39868;53.398;6.564;2022-09-13T06:49:25;19.40;74.10
53962;DHT22;39868;53.398;6.564;2022-09-13T06:51:55;19.40;73.90
53962;DHT22;39868;53.398;6.564;2022-09-13T06:54:22;19.40;73.80
53962;DHT22;39868;53.398;6.564;2022-09-13T06:56:50;19.50;73.90
53962;DHT22;39868;53.398;6.564;2022-09-13T06:59:17;19.50;73.80
53962;DHT22;39868;53.398;6.564;2022-09-13T07:01:45;19.50;74.00
53962;DHT22;39868;53.398;6.564;2022-09-13T07:04:14;19.60;74.10
53962;DHT22;39868;53.398;6.564;2022-09-13T07:06:42;19.60;74.00
53962;DHT22;39868;53.398;6.564;2022-09-13T07:09:11;19.60;74.10
53962;DHT22;39868;53.398;6.564;2022-09-13T07:11:39;19.70;74.20
53962;DHT22;39868;53.398;6.564;2022-09-13T07:14:06;19.80;74.00
53962;DHT22;39868;53.398;6.564;2022-09-13T07:16:37;19.80;73.50
53962;DHT22;39868;53.398;6.564;2022-09-13T07:19:05;19.80;73.30
53962;DHT22;39868;53.398;6.564;2022-09-13T07:21:33;19.90;73.00
53962;DHT22;39868;53.398;6.564;2022-09-13T07:24:01;20.00;73.30
53962;DHT22;39868;53.398;6.564;2022-09-13T07:26:29;20.00;72.40
53962;DHT22;39868;53.398;6.564;2022-09-13T07:28:58;20.00;72.20
53962;DHT22;39868;53.398;6.564;2022-09-13T07:31:27;20.00;71.80
53962;DHT22;39868;53.398;6.564;2022-09-13T07:33:59;20.00;70.80
53962;DHT22;39868;53.398;6.564;2022-09-13T07:36:27;20.00;71.10
53962;DHT22;39868;53.398;6.564;2022-09-13T07:38:55;20.10;70.90
53962;DHT22;39868;53.398;6.564;2022-09-13T07:41:23;20.10;70.50
53962;DHT22;39868;53.398;6.564;2022-09-13T07:43:51;20.10;70.10
53962;DHT22;39868;53.398;6.564;2022-09-13T07:46:24;20.10;70.40
53962;DHT22;39868;53.398;6.564;2022-09-13T07:48:53;20.10;69.50
53962;DHT22;39868;53.398;6.564;2022-09-13T07:51:24;20.20;69.00
53962;DHT22;39868;53.398;6.564;2022-09-13T07:53:53;20.20;69.40
53962;DHT22;39868;53.398;6.564;2022-09-13T07:56:24;20.20;69.10
53962;DHT22;39868;53.398;6.564;2022-09-13T07:58:52;20.20;68.90
53962;DHT22;39868;53.398;6.564;2022-09-13T08:03:54;20.30;69.20
53962;DHT22;39868;53.398;6.564;2022-09-13T08:06:23;20.30;65.90
53962;DHT22;39868;53.398;6.564;2022-09-13T08:08:50;20.30;67.10
53962;DHT22;39868;53.398;6.564;2022-09-13T08:11:22;20.30;67.50
53962;DHT22;39868;53.398;6.564;2022-09-13T08:13:50;20.40;67.70
53962;DHT22;39868;53.398;6.564;2022-09-13T08:16:18;20.50;67.50
53962;DHT22;39868;53.398;6.564;2022-09-13T08:18:46;20.50;67.60
53962;DHT22;39868;53.398;6.564;2022-09-13T08:21:14;20.60;67.90
53962;DHT22;39868;53.398;6.564;2022-09-13T08:23:42;20.60;68.30
53962;DHT22;39868;53.398;6.564;2022-09-13T08:26:09;20.70;67.60
53962;DHT22;39868;53.398;6.564;2022-09-13T08:28:37;20.70;66.80
53962;DHT22;39868;53.398;6.564;2022-09-13T08:31:10;20.80;67.00
53962;DHT22;39868;53.398;6.564;2022-09-13T08:33:37;20.80;67.00
53962;DHT22;39868;53.398;6.564;2022-09-13T08:36:12;20.80;66.30
53962;DHT22;39868;53.398;6.564;2022-09-13T08:38:43;20.90;65.90
53962;DHT22;39868;53.398;6.564;2022-09-13T08:44:37;20.90;65.90
53962;DHT22;39868;53.398;6.564;2022-09-13T08:46:44;21.00;65.50
53962;DHT22;39868;53.398;6.564;2022-09-13T08:49:16;21.00;65.30
53962;DHT22;39868;53.398;6.564;2022-09-13T08:51:50;21.00;65.60
53962;DHT22;39868;53.398;6.564;2022-09-13T08:54:19;21.10;65.80
53962;DHT22;39868;53.398;6.564;2022-09-13T08:56:51;21.10;65.00
53962;DHT22;39868;53.398;6.564;2022-09-13T08:59:30;21.20;64.70
53962;DHT22;39868;53.398;6.564;2022-09-13T09:04:30;21.20;65.00
53962;DHT22;39868;53.398;6.564;2022-09-13T09:09:27;21.30;64.20
53962;DHT22;39868;53.398;6.564;2022-09-13T09:11:59;21.40;64.80
53962;DHT22;39868;53.398;6.564;2022-09-13T09:14:31;21.40;64.50
53962;DHT22;39868;53.398;6.564;2022-09-13T09:17:04;21.50;64.40
53962;DHT22;39868;53.398;6.564;2022-09-13T09:22:03;21.50;64.50
53962;DHT22;39868;53.398;6.564;2022-09-13T09:24:33;21.60;64.20
53962;DHT22;39868;53.398;6.564;2022-09-13T09:27:07;21.60;64.60
53962;DHT22;39868;53.398;6.564;2022-09-13T09:29:42;21.60;64.90
53962;DHT22;39868;53.398;6.564;2022-09-13T09:32:35;21.60;64.20
53962;DHT22;39868;53.398;6.564;2022-09-13T09:37:37;21.60;64.10
53962;DHT22;39868;53.398;6.564;2022-09-13T09:40:08;21.50;63.50
53962;DHT22;39868;53.398;6.564;2022-09-13T09:42:42;21.50;63.50
53962;DHT22;39868;53.398;6.564;2022-09-13T09:47:55;21.50;62.60
53962;DHT22;39868;53.398;6.564;2022-09-13T09:50:26;21.40;62.40
53962;DHT22;39868;53.398;6.564;2022-09-13T09:55:27;21.50;62.50
53962;DHT22;39868;53.398;6.564;2022-09-13T09:57:56;21.50;62.10
53962;DHT22;39868;53.398;6.564;2022-09-13T10:00:25;21.50;61.40
53962;DHT22;39868;53.398;6.564;2022-09-13T10:02:54;21.50;61.40
53962;DHT22;39868;53.398;6.564;2022-09-13T10:05:23;21.60;61.70
53962;DHT22;39868;53.398;6.564;2022-09-13T10:07:52;21.60;61.60
53962;DHT22;39868;53.398;6.564;2022-09-13T10:13:04;21.70;61.80
53962;DHT22;39868;53.398;6.564;2022-09-13T10:15:33;21.70;61.60
53962;DHT22;39868;53.398;6.564;2022-09-13T10:18:03;21.80;60.90
53962;DHT22;39868;53.398;6.564;2022-09-13T10:20:58;21.80;60.90
53962;DHT22;39868;53.398;6.564;2022-09-13T10:23:30;21.90;61.40
53962;DHT22;39868;53.398;6.564;2022-09-13T10:28:33;22.00;60.70
53962;DHT22;39868;53.398;6.564;2022-09-13T10:31:05;22.00;61.40
53962;DHT22;39868;53.398;6.564;2022-09-13T10:36:15;22.10;61.30
53962;DHT22;39868;53.398;6.564;2022-09-13T10:39:04;22.10;60.60
53962;DHT22;39868;53.398;6.564;2022-09-13T10:41:36;22.10;60.90
53962;DHT22;39868;53.398;6.564;2022-09-13T10:44:05;22.10;60.40
53962;DHT22;39868;53.398;6.564;2022-09-13T10:46:36;22.10;60.10
53962;DHT22;39868;53.398;6.564;2022-09-13T10:49:05;22.10;60.70
53962;DHT22;39868;53.398;6.564;2022-09-13T10:51:35;22.10;61.00
53962;DHT22;39868;53.398;6.564;2022-09-13T10:54:20;22.10;60.80
53962;DHT22;39868;53.398;6.564;2022-09-13T10:56:49;22.20;60.80
53962;DHT22;39868;53.398;6.564;2022-09-13T10:59:24;22.10;60.80
53962;DHT22;39868;53.398;6.564;2022-09-13T11:15:26;22.10;59.90
53962;DHT22;39868;53.398;6.564;2022-09-13T11:23:41;22.20;60.50
53962;DHT22;39868;53.398;6.564;2022-09-13T11:47:30;22.50;59.90
53962;DHT22;39868;53.398;6.564;2022-09-13T11:50:02;22.50;58.60
53962;DHT22;39868;53.398;6.564;2022-09-13T11:52:45;22.50;59.30
53962;DHT22;39868;53.398;6.564;2022-09-13T11:55:22;22.50;59.60
53962;DHT22;39868;53.398;6.564;2022-09-13T11:57:52;22.50;59.80
53962;DHT22;39868;53.398;6.564;2022-09-13T12:00:25;22.50;59.50
53962;DHT22;39868;53.398;6.564;2022-09-13T12:03:05;22.60;59.60
53962;DHT22;39868;53.398;6.564;2022-09-13T12:08:37;22.60;58.80
53962;DHT22;39868;53.398;6.564;2022-09-13T12:14:07;22.70;57.60
53962;DHT22;39868;53.398;6.564;2022-09-13T12:16:45;22.70;57.80
53962;DHT22;39868;53.398;6.564;2022-09-13T12:21:42;22.70;58.00
53962;DHT22;39868;53.398;6.564;2022-09-13T12:29:19;22.70;57.20
53962;DHT22;39868;53.398;6.564;2022-09-13T12:31:48;22.70;58.00
53962;DHT22;39868;53.398;6.564;2022-09-13T12:35:02;22.70;57.70
53962;DHT22;39868;53.398;6.564;2022-09-13T12:39:39;22.70;58.20
53962;DHT22;39868;53.398;6.564;2022-09-13T12:42:30;22.70;58.50
53962;DHT22;39868;53.398;6.564;2022-09-13T12:56:16;22.80;57.30
53962;DHT22;39868;53.398;6.564;2022-09-13T12:58:52;22.80;57.50
53962;DHT22;39868;53.398;6.564;2022-09-13T13:01:25;22.80;58.70
53962;DHT22;39868;53.398;6.564;2022-09-13T13:04:37;22.70;57.80
53962;DHT22;39868;53.398;6.564;2022-09-13T13:09:22;22.80;57.30
53962;DHT22;39868;53.398;6.564;2022-09-13T13:11:54;22.70;57.00
53962;DHT22;39868;53.398;6.564;2022-09-13T13:14:28;22.70;57.20
53962;DHT22;39868;53.398;6.564;2022-09-13T13:19:46;22.70;53.90
53962;DHT22;39868;53.398;6.564;2022-09-13T13:27:47;22.50;55.60
53962;DHT22;39868;53.398;6.564;2022-09-13T13:33:04;22.50;55.90
53962;DHT22;39868;53.398;6.564;2022-09-13T13:35:31;22.50;55.20
53962;DHT22;39868;53.398;6.564;2022-09-13T13:40:52;22.50;56.00
53962;DHT22;39868;53.398;6.564;2022-09-13T13:43:35;22.40;56.10
53962;DHT22;39868;53.398;6.564;2022-09-13T13:48:40;22.40;55.80
53962;DHT22;39868;53.398;6.564;2022-09-13T13:53:38;22.40;56.00
53962;DHT22;39868;53.398;6.564;2022-09-13T13:56:07;22.40;54.90
53962;DHT22;39868;53.398;6.564;2022-09-13T13:58:53;22.30;55.50
53962;DHT22;39868;53.398;6.564;2022-09-13T14:01:23;22.30;55.00
53962;DHT22;39868;53.398;6.564;2022-09-13T14:06:32;22.20;54.60
53962;DHT22;39868;53.398;6.564;2022-09-13T14:14:23;22.20;55.20
53962;DHT22;39868;53.398;6.564;2022-09-13T14:17:01;22.30;55.20
53962;DHT22;39868;53.398;6.564;2022-09-13T14:19:39;22.30;54.80
53962;DHT22;39868;53.398;6.564;2022-09-13T14:22:25;22.30;54.80
53962;DHT22;39868;53.398;6.564;2022-09-13T14:24:54;22.40;55.00
53962;DHT22;39868;53.398;6.564;2022-09-13T14:29:50;22.50;55.40
53962;DHT22;39868;53.398;6.564;2022-09-13T14:32:19;22.60;54.60
53962;DHT22;39868;53.398;6.564;2022-09-13T14:34:52;22.70;55.00
53962;DHT22;39868;53.398;6.564;2022-09-13T14:37:22;22.80;55.50
53962;DHT22;39868;53.398;6.564;2022-09-13T14:39:54;22.90;55.60
53962;DHT22;39868;53.398;6.564;2022-09-13T14:42:21;23.10;55.30
53962;DHT22;39868;53.398;6.564;2022-09-13T14:44:49;23.20;55.20
53962;DHT22;39868;53.398;6.564;2022-09-13T14:49:48;23.40;55.20
53962;DHT22;39868;53.398;6.564;2022-09-13T14:52:23;23.50;54.80
53962;DHT22;39868;53.398;6.564;2022-09-13T14:54:53;23.60;54.20
53962;DHT22;39868;53.398;6.564;2022-09-13T14:57:28;23.60;53.70
53962;DHT22;39868;53.398;6.564;2022-09-13T14:59:57;23.70;54.10
53962;DHT22;39868;53.398;6.564;2022-09-13T15:02:28;23.80;53.40
53962;DHT22;39868;53.398;6.564;2022-09-13T15:04:57;23.80;52.40
53962;DHT22;39868;53.398;6.564;2022-09-13T15:09:56;23.70;53.20
53962;DHT22;39868;53.398;6.564;2022-09-13T15:12:26;23.70;53.20
53962;DHT22;39868;53.398;6.564;2022-09-13T15:17:56;23.50;52.90
53962;DHT22;39868;53.398;6.564;2022-09-13T15:20:24;23.40;52.00
53962;DHT22;39868;53.398;6.564;2022-09-13T15:22:53;23.20;52.70
53962;DHT22;39868;53.398;6.564;2022-09-13T15:25:27;23.10;52.70
53962;DHT22;39868;53.398;6.564;2022-09-13T15:27:56;22.90;52.90
53962;DHT22;39868;53.398;6.564;2022-09-13T15:30:27;22.80;53.00
53962;DHT22;39868;53.398;6.564;2022-09-13T15:35:39;22.50;53.80
53962;DHT22;39868;53.398;6.564;2022-09-13T15:40:44;22.20;54.60
53962;DHT22;39868;53.398;6.564;2022-09-13T15:43:12;22.00;54.70
53962;DHT22;39868;53.398;6.564;2022-09-13T15:45:39;22.00;55.20
53962;DHT22;39868;53.398;6.564;2022-09-13T15:48:06;21.90;55.50
53962;DHT22;39868;53.398;6.564;2022-09-13T15:50:34;21.80;55.70
53962;DHT22;39868;53.398;6.564;2022-09-13T15:53:04;21.80;56.10
53962;DHT22;39868;53.398;6.564;2022-09-13T15:55:36;21.70;56.00
53962;DHT22;39868;53.398;6.564;2022-09-13T15:58:05;21.60;56.10
53962;DHT22;39868;53.398;6.564;2022-09-13T16:00:32;21.50;56.10
53962;DHT22;39868;53.398;6.564;2022-09-13T16:03:00;21.50;56.00
53962;DHT22;39868;53.398;6.564;2022-09-13T16:05:28;21.40;56.00
53962;DHT22;39868;53.398;6.564;2022-09-13T16:07:55;21.30;55.80
53962;DHT22;39868;53.398;6.564;2022-09-13T16:10:24;21.30;55.80
53962;DHT22;39868;53.398;6.564;2022-09-13T16:12:52;21.30;55.80
53962;DHT22;39868;53.398;6.564;2022-09-13T16:15:20;21.30;56.00
53962;DHT22;39868;53.398;6.564;2022-09-13T16:17:48;21.30;56.00
53962;DHT22;39868;53.398;6.564;2022-09-13T16:20:15;21.30;56.00
53962;DHT22;39868;53.398;6.564;2022-09-13T16:22:43;21.30;56.10
53962;DHT22;39868;53.398;6.564;2022-09-13T16:25:11;21.30;56.00
53962;DHT22;39868;53.398;6.564;2022-09-13T16:27:42;21.30;55.90
53962;DHT22;39868;53.398;6.564;2022-09-13T16:30:14;21.30;56.00
53962;DHT22;39868;53.398;6.564;2022-09-13T16:32:42;21.30;55.70
53962;DHT22;39868;53.398;6.564;2022-09-13T16:35:11;21.30;55.70
53962;DHT22;39868;53.398;6.564;2022-09-13T16:37:39;21.30;55.70
53962;DHT22;39868;53.398;6.564;2022-09-13T16:40:06;21.20;55.70
53962;DHT22;39868;53.398;6.564;2022-09-13T16:42:36;21.10;55.80
53962;DHT22;39868;53.398;6.564;2022-09-13T16:45:03;21.10;56.00
53962;DHT22;39868;53.398;6.564;2022-09-13T16:47:31;21.00;56.00
53962;DHT22;39868;53.398;6.564;2022-09-13T16:49:58;21.00;56.20
53962;DHT22;39868;53.398;6.564;2022-09-13T16:52:26;20.90;56.30
53962;DHT22;39868;53.398;6.564;2022-09-13T16:54:55;20.90;56.30
53962;DHT22;39868;53.398;6.564;2022-09-13T16:57:24;20.80;56.40
53962;DHT22;39868;53.398;6.564;2022-09-13T16:59:52;20.80;56.50
53962;DHT22;39868;53.398;6.564;2022-09-13T17:02:23;20.80;56.50
53962;DHT22;39868;53.398;6.564;2022-09-13T17:04:51;20.80;56.70
53962;DHT22;39868;53.398;6.564;2022-09-13T17:07:18;20.70;56.70
53962;DHT22;39868;53.398;6.564;2022-09-13T17:09:45;20.70;56.80
53962;DHT22;39868;53.398;6.564;2022-09-13T17:12:13;20.70;56.90
53962;DHT22;39868;53.398;6.564;2022-09-13T17:14:40;20.70;57.00
53962;DHT22;39868;53.398;6.564;2022-09-13T17:17:16;20.70;57.10
53962;DHT22;39868;53.398;6.564;2022-09-13T17:19:44;20.70;57.20
53962;DHT22;39868;53.398;6.564;2022-09-13T17:22:11;20.60;57.20
53962;DHT22;39868;53.398;6.564;2022-09-13T17:24:39;20.60;57.30
53962;DHT22;39868;53.398;6.564;2022-09-13T17:27:07;20.60;57.30
53962;DHT22;39868;53.398;6.564;2022-09-13T17:29:35;20.60;57.50
53962;DHT22;39868;53.398;6.564;2022-09-13T17:32:03;20.60;57.40
53962;DHT22;39868;53.398;6.564;2022-09-13T17:34:32;20.60;57.50
53962;DHT22;39868;53.398;6.564;2022-09-13T17:37:01;20.50;57.60
53962;DHT22;39868;53.398;6.564;2022-09-13T17:39:30;20.50;57.80
53962;DHT22;39868;53.398;6.564;2022-09-13T17:41:58;20.50;59.00
53962;DHT22;39868;53.398;6.564;2022-09-13T17:44:25;20.50;58.40
53962;DHT22;39868;53.398;6.564;2022-09-13T17:46:54;20.50;58.40
53962;DHT22;39868;53.398;6.564;2022-09-13T17:49:22;20.50;58.40
53962;DHT22;39868;53.398;6.564;2022-09-13T17:51:52;20.40;58.40
53962;DHT22;39868;53.398;6.564;2022-09-13T17:54:23;20.40;58.50
53962;DHT22;39868;53.398;6.564;2022-09-13T17:56:52;20.40;58.50
53962;DHT22;39868;53.398;6.564;2022-09-13T17:59:20;20.40;58.60
53962;DHT22;39868;53.398;6.564;2022-09-13T18:01:51;20.40;58.70
53962;DHT22;39868;53.398;6.564;2022-09-13T18:04:20;20.30;58.60
53962;DHT22;39868;53.398;6.564;2022-09-13T18:06:49;20.30;58.70
53962;DHT22;39868;53.398;6.564;2022-09-13T18:09:16;20.30;58.70
53962;DHT22;39868;53.398;6.564;2022-09-13T18:11:44;20.30;58.70
53962;DHT22;39868;53.398;6.564;2022-09-13T18:14:16;20.30;58.80
53962;DHT22;39868;53.398;6.564;2022-09-13T18:16:44;20.30;58.80
53962;DHT22;39868;53.398;6.564;2022-09-13T18:19:11;20.30;58.80
53962;DHT22;39868;53.398;6.564;2022-09-13T18:21:39;20.30;58.90
53962;DHT22;39868;53.398;6.564;2022-09-13T18:24:08;20.30;59.00
53962;DHT22;39868;53.398;6.564;2022-09-13T18:26:37;20.20;59.10
53962;DHT22;39868;53.398;6.564;2022-09-13T18:29:06;20.20;59.20
53962;DHT22;39868;53.398;6.564;2022-09-13T18:31:37;20.20;59.30
53962;DHT22;39868;53.398;6.564;2022-09-13T18:34:11;20.20;59.40
53962;DHT22;39868;53.398;6.564;2022-09-13T18:36:40;20.20;59.40
53962;DHT22;39868;53.398;6.564;2022-09-13T18:39:20;20.20;59.60
53962;DHT22;39868;53.398;6.564;2022-09-13T18:41:51;20.20;59.70
53962;DHT22;39868;53.398;6.564;2022-09-13T18:44:20;20.10;59.60
53962;DHT22;39868;53.398;6.564;2022-09-13T18:46:48;20.10;59.60
53962;DHT22;39868;53.398;6.564;2022-09-13T18:49:27;20.10;59.70
53962;DHT22;39868;53.398;6.564;2022-09-13T18:51:56;20.10;59.70
53962;DHT22;39868;53.398;6.564;2022-09-13T18:54:31;20.10;59.80
53962;DHT22;39868;53.398;6.564;2022-09-13T18:57:06;20.10;60.00
53962;DHT22;39868;53.398;6.564;2022-09-13T18:59:45;20.10;59.90